Saturday, November 22, 2014
01:48 UTC
  |  Log In   |  Register Free
Airport Search:

Durant Regional - Eaker Field Airport
(KDUA)

Durant Regional - Eaker Field Airport Diagram
No Airport Diagram Available

FAA data valid effective November 13, 2014 - January 08, 2015 (unless otherwise noted).

 
 
 
 
 
 
 
 
 
 
 
 
 
 

Current Aviation Weather for Durant Regional - Eaker Field Airport (KDUA)

The most recent METAR observation for KDUA was updated at: 0118
METAR Summary (Translated METAR)
KDUA
220055Z AUTO 14008KT 7SM OVC004 16/16 A3008 RMK AO2
KGYI
220055Z AUTO 13011G16KT 10SM OVC007 18/17 A3007 RMK AO2 T01750167
(19.5 nm SW from KDUA)
KAQR
220055Z AUTO 13005KT 1 3/4SM BR OVC002 14/14 A3009 RMK AO2
(30 nm NE from KDUA)
TAF
No TAF information found within 50 nm of KDUA
  Airport Weather Conditions for KDUA

 Current Weather at DUA
61° F
Overcast
Southeast winds at 9.2 mph
DUA NOAA Radar

Pressure: 30.08 in
Humidity: 100%
Wind: Southeast at 9.2 MPH (8 KT)
Dew Point: 60.8°F
Visibility: 7.00 mi


Airport Weather Forecast for KDUA

Translated METAR and TAF for KDUA
Translated METAR for KDUA (0143 UTC 22 November 2014)
found at http://aviationweather.gov/adds/metars/
 
METAR text: KDUA 220135Z AUTO 14008G15KT 10SM OVC006 16/16 A3009 RMK AO2
Conditions at: KDUA (DURANT , OK, US) observed 0135 UTC 22 November 2014
Temperature: 16.0°C (61°F)
Dewpoint: 16.0°C (61°F) [RH = 100%]
Pressure (altimeter): 30.09 inches Hg (1019.0 mb)
Winds: from the SE (140 degrees) at 9 MPH (8 knots; 4.2 m/s)
gusting to 17 MPH (15 knots; 7.8 m/s)
Visibility: 10 or more miles (16+ km)
Ceiling: 600 feet AGL
Clouds: overcast cloud deck at 600 feet AGL
Weather: automated observation with no human augmentation;
there may or may not be significant weather present at this time
Translated TAF for KDUA

There is no translated TAF available for this airport

Find All Airport Services Find A Hotel Find A Rental Car Find A Golf Course Find A Restaurant $100 Hamburger



FBO's on the Field
FBO Company Facility Photos Services Transportation Aviation Fuel Prices: Prices include tax
Catering Weather Repair Courtesy Rental Type 100LL JetA JetA+ MOGAS 8087
 
D/W Aviation

This FBO has not yet been rated
FS:Avfuel
Last Updated: Oct-28
Login to update fuel prices
SS:
Contact D/W AviationMore FBO Information
 
Add another FBO Facility Photos Catering Weather Repair Courtesy Rental Type 100LL JetA JetA+ MOGAS 8087
Services Transportation Aviation Fuel Prices: Prices include tax


model-print
model-print
model-print
model-print